Aeroporto :
LOGIN :

Iscrizione | Disclaimer

   EN    FR    IT 

 










Sommario :    VFR   VFR Marginale   IFR   IFR Intensivo   IFR Molto Intensivo
Visibilità : 
Base nubi : 
>= 8 km
>= 3000ft
5 / 8 km
1000 / 3000 ft
1500m / 5 km
500 / 1000 ft
800 / 1500m
200 / 500 ft
< 800m
< 200 ft
Simboli :   Temporali  Nebbia  Neve Forte  Precipitazioni Forti  Vento > 20 kt
SIGMETs :   Varie  Temporali  Ghiacco  Turbolenza  Onda orograficha  Ceneri Vulcaniche






- Altitudine del aeroporto : 2731 ft
- Codice IATA : LPY


LFHP - Le Puy Loudes

ULTIMO METAR :
  • 231200Z AUTO VRB03KT 9999 SCT044 SCT050 21/09 Q1012

METARs OBSOLETI :
  • 231130Z AUTO VRB04KT 9999 FEW036 SCT050 20/11 Q1012
  • 231100Z AUTO VRB03KT CAVOK 18/12 Q1012
  • 231030Z AUTO 13005KT 080V180 9999 FEW034 18/12 Q1012
  • 230700Z AUTO VRB02KT CAVOK 11/10 Q1013

Previsioni scadute.



MetMap, La meteo Aeronautica in un colpo d'occhio ! - Copyright ORBIFLY Dicembre 2007 - Disclaimer

ORBIFLY MET'MAP TEAM :

Programmazione e sviluppo : Alexandra Zaïnal
Concezione : Baudouin d'Aumeries
Aiuto per la programmazione : Marc-Olivier Méhu
Supporto tecnico e logistico : Manuel Goepfert
Aiuto per la traduzione : Arnaldo La Scala

Contatto : metmap@orbifly.com




FONTI E CREDITI :

   NOAA